Time;durP1;ratioP1;P1;durP2;ratioP2;P2;SDS_P1;SDS_P2;PMS_P1;PMS_P2;Temp;Humidity;BMP_temperature;BMP_pressure;BME280_temperature;BME280_humidity;BME280_pressure;Samples;Min_cycle;Max_cycle;Signal;HPM_P1;HPM_P2
2021/07/12 00:00:44;;;;;;;2.17;1.15;;;;;;;;;;5073412;28;20142;-50
2021/07/12 00:03:10;;;;;;;2.25;1.70;;;;;;;;;;5074301;28;20047;-51
2021/07/12 00:05:36;;;;;;;2.28;1.45;;;;;;;;;;5073490;28;20470;-51
2021/07/12 00:08:02;;;;;;;1.77;1.20;;;;;;;;;;5073879;28;20099;-51
2021/07/12 00:10:29;;;;;;;2.15;1.48;;;;;;;;;;5073767;28;20112;-51
2021/07/12 00:12:56;;;;;;;3.58;1.85;;;;;;;;;;5073457;28;20371;-49
2021/07/12 00:15:23;;;;;;;1.83;1.40;;;;;;;;;;5073981;28;20521;-50
2021/07/12 00:17:49;;;;;;;2.58;1.48;;;;;;;;;;5073758;28;20085;-50
2021/07/12 00:20:16;;;;;;;3.47;1.38;;;;;;;;;;5073171;28;20058;-50
2021/07/12 00:22:42;;;;;;;2.17;1.25;;;;;;;;;;5073569;28;20024;-50
2021/07/12 00:25:09;;;;;;;17.60;3.67;;;;;;;;;;5073621;28;20067;-50
2021/07/12 00:27:35;;;;;;;3.17;1.88;;;;;;;;;;5074007;28;20041;-50
2021/07/12 00:30:01;;;;;;;3.15;1.98;;;;;;;;;;5073254;28;20024;-50
2021/07/12 00:32:27;;;;;;;3.38;1.60;;;;;;;;;;5072383;28;20119;-50
2021/07/12 00:34:53;;;;;;;4.32;1.58;;;;;;;;;;5073166;28;20124;-50
2021/07/12 00:37:19;;;;;;;4.63;1.63;;;;;;;;;;5073585;28;20013;-50
2021/07/12 00:39:45;;;;;;;13.32;2.13;;;;;;;;;;5073227;28;20368;-50
2021/07/12 00:42:11;;;;;;;5.35;2.95;;;;;;;;;;5072870;28;20020;-50
2021/07/12 00:44:37;;;;;;;3.55;2.05;;;;;;;;;;5073430;28;20329;-50
2021/07/12 00:47:05;;;;;;;1.98;1.73;;;;;;;;;;5073362;28;20024;-49
2021/07/12 00:49:31;;;;;;;3.33;1.85;;;;;;;;;;5073036;28;20031;-50
2021/07/12 00:51:57;;;;;;;1.75;1.20;;;;;;;;;;5072746;28;20050;-50
2021/07/12 00:54:27;;;;;;;6.15;1.65;;;;;;;;;;5073304;28;20032;-50
2021/07/12 00:56:58;;;;;;;3.88;1.70;;;;;;;;;;5073502;28;20047;-50
2021/07/12 00:59:24;;;;;;;3.10;1.73;;;;;;;;;;5072457;28;20463;-49
2021/07/12 01:01:50;;;;;;;1.60;1.48;;;;;;;;;;5069770;28;20025;-49
2021/07/12 01:04:16;;;;;;;2.50;1.98;;;;;;;;;;5061622;28;20039;-50
2021/07/12 01:06:42;;;;;;;5.80;1.58;;;;;;;;;;5073190;28;20032;-50
2021/07/12 01:09:08;;;;;;;3.05;2.03;;;;;;;;;;5073144;28;20270;-50
2021/07/12 01:11:42;;;;;;;1.90;1.48;;;;;;;;;;5072037;28;20405;-50
2021/07/12 01:14:14;;;;;;;2.33;2.00;;;;;;;;;;5072692;28;20040;-50
2021/07/12 01:16:47;;;;;;;5.80;2.00;;;;;;;;;;5072964;28;20082;-50
2021/07/12 01:19:20;;;;;;;2.65;1.70;;;;;;;;;;5072741;28;20025;-50
2021/07/12 01:22:08;;;;;;;4.43;1.92;;;;;;;;;;5071972;28;20037;-50
2021/07/12 01:24:53;;;;;;;2.20;1.63;;;;;;;;;;5073075;28;20024;-50
2021/07/12 01:27:31;;;;;;;3.45;1.48;;;;;;;;;;5073103;28;20024;-50
2021/07/12 01:30:00;;;;;;;3.47;1.35;;;;;;;;;;5072668;28;20028;-50
2021/07/12 01:32:50;;;;;;;1.95;1.42;;;;;;;;;;5072180;28;20025;-49
2021/07/12 01:35:19;;;;;;;1.73;1.40;;;;;;;;;;5072334;28;20040;-50
2021/07/12 01:37:45;;;;;;;5.13;1.60;;;;;;;;;;5072656;28;20032;-49
2021/07/12 01:40:14;;;;;;;2.63;1.65;;;;;;;;;;5073351;28;20024;-50
2021/07/12 01:42:44;;;;;;;2.22;1.52;;;;;;;;;;5078542;28;20024;-50
2021/07/12 01:45:14;;;;;;;2.15;1.92;;;;;;;;;;5078978;28;20016;-49
2021/07/12 01:47:41;;;;;;;9.32;2.05;;;;;;;;;;5079155;28;20028;-49
2021/07/12 01:50:26;;;;;;;3.60;2.38;;;;;;;;;;5079093;28;20020;-49
2021/07/12 01:52:58;;;;;;;3.28;2.22;;;;;;;;;;5078348;28;20047;-50
2021/07/12 01:55:36;;;;;;;2.97;1.98;;;;;;;;;;5079484;28;20024;-49
2021/07/12 01:58:12;;;;;;;3.78;2.28;;;;;;;;;;5078941;28;20020;-49
2021/07/12 02:00:38;;;;;;;3.15;2.00;;;;;;;;;;5078135;28;20031;-50
2021/07/12 02:03:05;;;;;;;3.50;2.15;;;;;;;;;;5078961;28;20025;-50
2021/07/12 02:05:32;;;;;;;8.73;2.20;;;;;;;;;;5078879;28;20134;-50
2021/07/12 02:08:00;;;;;;;2.08;1.55;;;;;;;;;;5078925;28;20424;-50
2021/07/12 02:10:27;;;;;;;2.45;1.73;;;;;;;;;;5079107;28;20016;-50
2021/07/12 02:12:54;;;;;;;3.63;1.65;;;;;;;;;;5078206;28;20070;-50
2021/07/12 02:15:20;;;;;;;3.28;1.60;;;;;;;;;;5078583;28;20480;-50
2021/07/12 02:17:50;;;;;;;6.75;1.80;;;;;;;;;;5079212;28;20032;-50
2021/07/12 02:20:16;;;;;;;1.63;1.00;;;;;;;;;;5079240;28;20071;-50
2021/07/12 02:22:44;;;;;;;4.40;1.52;;;;;;;;;;5078720;28;20174;-50
2021/07/12 02:25:13;;;;;;;3.50;1.92;;;;;;;;;;5070016;28;20148;-50
2021/07/12 02:27:39;;;;;;;2.60;1.67;;;;;;;;;;5070956;28;20452;-49
2021/07/12 02:30:06;;;;;;;2.33;1.70;;;;;;;;;;5078782;28;20029;-50
2021/07/12 02:32:32;;;;;;;2.20;1.60;;;;;;;;;;5077752;28;20029;-49
2021/07/12 02:34:59;;;;;;;11.95;2.00;;;;;;;;;;5078986;28;20036;-49
2021/07/12 02:37:26;;;;;;;5.13;2.60;;;;;;;;;;5078739;28;20088;-50
2021/07/12 02:39:52;;;;;;;5.88;2.40;;;;;;;;;;5078886;28;20039;-50
2021/07/12 02:42:19;;;;;;;3.17;2.33;;;;;;;;;;5078013;28;20024;-49
2021/07/12 02:44:47;;;;;;;5.15;2.78;;;;;;;;;;5078689;28;20031;-49
2021/07/12 02:47:13;;;;;;;3.40;2.67;;;;;;;;;;5078785;28;20029;-50
2021/07/12 02:49:39;;;;;;;5.28;2.78;;;;;;;;;;5078742;28;20029;-50
2021/07/12 02:52:26;;;;;;;2.75;2.22;;;;;;;;;;5076718;28;20343;-50
2021/07/12 02:54:53;;;;;;;2.53;1.92;;;;;;;;;;5075180;28;20463;-49
2021/07/12 02:57:19;;;;;;;3.03;2.00;;;;;;;;;;5075131;28;20025;-50
2021/07/12 02:59:46;;;;;;;3.35;1.90;;;;;;;;;;5075397;28;20028;-50
2021/07/12 03:02:12;;;;;;;2.20;2.00;;;;;;;;;;5074493;28;20433;-50
2021/07/12 03:04:38;;;;;;;6.97;2.10;;;;;;;;;;5074645;28;20021;-50
2021/07/12 03:07:12;;;;;;;2.50;1.77;;;;;;;;;;5075108;28;20148;-50
2021/07/12 03:09:40;;;;;;;3.78;2.15;;;;;;;;;;5075480;28;20162;-49
2021/07/12 03:12:08;;;;;;;3.03;2.05;;;;;;;;;;5074291;28;20036;-49
2021/07/12 03:14:38;;;;;;;2.08;1.80;;;;;;;;;;5075048;28;20103;-50
2021/07/12 03:17:04;;;;;;;3.50;2.17;;;;;;;;;;5074711;28;20158;-50
2021/07/12 03:19:32;;;;;;;3.53;1.98;;;;;;;;;;5075048;28;20036;-50
2021/07/12 03:21:59;;;;;;;4.05;1.83;;;;;;;;;;5074092;28;20025;-49
2021/07/12 03:24:26;;;;;;;1.80;1.70;;;;;;;;;;5073474;28;20052;-50
2021/07/12 03:26:53;;;;;;;1.80;1.50;;;;;;;;;;5074634;28;20105;-50
2021/07/12 03:29:21;;;;;;;3.13;1.70;;;;;;;;;;5068098;28;20028;-50
2021/07/12 03:31:47;;;;;;;2.55;1.65;;;;;;;;;;5061910;28;20108;-50
2021/07/12 03:34:14;;;;;;;1.92;1.50;;;;;;;;;;5064961;28;20468;-50
2021/07/12 03:36:41;;;;;;;3.95;1.88;;;;;;;;;;5061736;28;20017;-50
2021/07/12 03:39:07;;;;;;;4.18;2.10;;;;;;;;;;5057181;28;20474;-50
2021/07/12 03:41:34;;;;;;;2.40;1.75;;;;;;;;;;5053882;28;20356;-50
2021/07/12 03:44:00;;;;;;;2.97;2.05;;;;;;;;;;5054888;28;20368;-50
2021/07/12 03:46:26;;;;;;;2.72;1.60;;;;;;;;;;5053890;28;20462;-50
2021/07/12 03:48:52;;;;;;;3.50;1.70;;;;;;;;;;5054719;28;20155;-50
2021/07/12 03:51:18;;;;;;;2.88;1.90;;;;;;;;;;5070407;28;20055;-50
2021/07/12 03:53:44;;;;;;;2.00;1.80;;;;;;;;;;5074372;28;20047;-50
2021/07/12 03:56:10;;;;;;;2.90;1.52;;;;;;;;;;5074111;28;20024;-50
2021/07/12 03:58:36;;;;;;;6.80;1.58;;;;;;;;;;5074377;28;20033;-50
2021/07/12 04:01:02;;;;;;;2.78;1.77;;;;;;;;;;5073668;28;20048;-50
2021/07/12 04:03:28;;;;;;;2.95;1.80;;;;;;;;;;5073487;28;20404;-50
2021/07/12 04:05:54;;;;;;;2.03;1.58;;;;;;;;;;5073986;28;20111;-50
2021/07/12 04:08:20;;;;;;;1.50;1.40;;;;;;;;;;5073966;28;20121;-50
2021/07/12 04:10:46;;;;;;;1.65;1.55;;;;;;;;;;5073032;28;20498;-49
2021/07/12 04:13:13;;;;;;;2.80;1.90;;;;;;;;;;5073875;28;20036;-50
2021/07/12 04:15:39;;;;;;;4.63;1.75;;;;;;;;;;5073912;28;20333;-50
2021/07/12 04:18:05;;;;;;;2.20;1.83;;;;;;;;;;5073794;28;20039;-50
2021/07/12 04:20:32;;;;;;;1.40;1.30;;;;;;;;;;5072109;28;20035;-50
2021/07/12 04:22:59;;;;;;;2.20;1.75;;;;;;;;;;5073422;28;20410;-50
2021/07/12 04:25:25;;;;;;;2.45;1.75;;;;;;;;;;5073764;28;20028;-50
2021/07/12 04:27:51;;;;;;;5.85;2.85;;;;;;;;;;5073375;28;20021;-50
2021/07/12 04:30:18;;;;;;;3.55;2.35;;;;;;;;;;5073243;28;20035;-50
2021/07/12 04:32:44;;;;;;;4.05;2.40;;;;;;;;;;5072268;28;20024;-50
2021/07/12 04:35:12;;;;;;;3.42;2.05;;;;;;;;;;5073606;28;20085;-50
2021/07/12 04:37:38;;;;;;;5.97;3.30;;;;;;;;;;5073101;28;20463;-50
2021/07/12 04:40:04;;;;;;;5.97;2.88;;;;;;;;;;5073287;28;20036;-50
2021/07/12 04:42:31;;;;;;;2.33;1.58;;;;;;;;;;5072435;28;20355;-50
2021/07/12 04:44:56;;;;;;;3.63;2.40;;;;;;;;;;5073349;28;20098;-50
2021/07/12 04:47:23;;;;;;;3.15;1.98;;;;;;;;;;5073490;28;20448;-50
2021/07/12 04:49:49;;;;;;;3.45;2.33;;;;;;;;;;5072901;28;20069;-50
2021/07/12 04:52:15;;;;;;;3.08;2.13;;;;;;;;;;5072471;28;20029;-50
2021/07/12 04:54:42;;;;;;;3.50;1.92;;;;;;;;;;5073242;28;20367;-50
2021/07/12 04:57:08;;;;;;;3.05;2.33;;;;;;;;;;5072971;28;20439;-50
2021/07/12 04:59:39;;;;;;;4.63;2.25;;;;;;;;;;5073146;28;20046;-50
2021/07/12 05:02:09;;;;;;;5.00;1.50;;;;;;;;;;5072369;28;20029;-50
2021/07/12 05:04:36;;;;;;;;;;;;;;;;;;5073514;28;20036;-50
2021/07/12 05:07:02;;;;;;;2.65;1.67;;;;;;;;;;5073003;28;19905;-50
2021/07/12 05:09:28;;;;;;;4.88;2.10;;;;;;;;;;5073039;28;20017;-50
2021/07/12 05:11:54;;;;;;;3.28;1.85;;;;;;;;;;5071590;28;20082;-50
2021/07/12 05:14:20;;;;;;;5.38;2.15;;;;;;;;;;5073154;28;20402;-50
2021/07/12 05:16:46;;;;;;;6.38;1.70;;;;;;;;;;5071511;28;20033;-50
2021/07/12 05:19:15;;;;;;;2.05;1.60;;;;;;;;;;5072492;28;20508;-51
2021/07/12 05:21:42;;;;;;;2.53;1.63;;;;;;;;;;5072468;28;20033;-50
2021/07/12 05:24:08;;;;;;;2.55;1.88;;;;;;;;;;5072892;28;20024;-51
2021/07/12 05:26:34;;;;;;;4.05;2.10;;;;;;;;;;5072140;28;20225;-50
2021/07/12 05:29:00;;;;;;;5.40;2.03;;;;;;;;;;5072743;28;20021;-51
2021/07/12 05:31:26;;;;;;;2.42;2.08;;;;;;;;;;5072386;28;20055;-51
2021/07/12 05:33:53;;;;;;;5.60;2.15;;;;;;;;;;5072606;28;20028;-50
2021/07/12 05:36:19;;;;;;;3.90;1.80;;;;;;;;;;5071667;28;20070;-51
2021/07/12 05:38:45;;;;;;;3.60;2.33;;;;;;;;;;5052139;28;20503;-50
2021/07/12 05:41:11;;;;;;;3.22;2.33;;;;;;;;;;5052272;28;20381;-50
2021/07/12 05:43:37;;;;;;;3.10;2.05;;;;;;;;;;5071988;28;20447;-50
2021/07/12 05:46:04;;;;;;;2.22;1.80;;;;;;;;;;5072218;28;20024;-50
2021/07/12 05:48:31;;;;;;;2.55;1.88;;;;;;;;;;5072718;28;20060;-50
2021/07/12 05:50:57;;;;;;;4.15;1.95;;;;;;;;;;5071709;28;20478;-50
2021/07/12 05:53:23;;;;;;;8.93;2.75;;;;;;;;;;5072494;28;20032;-50
2021/07/12 05:55:49;;;;;;;6.68;2.20;;;;;;;;;;5072117;28;20032;-50
2021/07/12 05:58:15;;;;;;;3.95;2.10;;;;;;;;;;5072645;28;20031;-50
2021/07/12 06:00:41;;;;;;;3.58;2.40;;;;;;;;;;5072211;28;20108;-50
2021/07/12 06:03:07;;;;;;;3.03;2.15;;;;;;;;;;5072389;28;20107;-50
2021/07/12 06:05:33;;;;;;;4.60;2.30;;;;;;;;;;5072312;28;20116;-51
2021/07/12 06:07:59;;;;;;;8.20;2.85;;;;;;;;;;5072314;28;20028;-50
2021/07/12 06:10:26;;;;;;;9.50;2.53;;;;;;;;;;5072642;28;20020;-50
2021/07/12 06:12:52;;;;;;;21.48;3.28;;;;;;;;;;5071505;28;20036;-50
2021/07/12 06:15:18;;;;;;;2.60;1.88;;;;;;;;;;5072810;28;20044;-50
2021/07/12 06:17:47;;;;;;;3.47;2.22;;;;;;;;;;5072075;28;20059;-50
2021/07/12 06:20:18;;;;;;;9.98;2.85;;;;;;;;;;5072047;28;20032;-50
2021/07/12 06:22:44;;;;;;;3.33;2.08;;;;;;;;;;5070907;28;20052;-50
2021/07/12 06:25:10;;;;;;;3.08;2.13;;;;;;;;;;5072490;28;20047;-50
2021/07/12 06:27:36;;;;;;;3.85;2.13;;;;;;;;;;5074133;28;20120;-50
2021/07/12 06:30:03;;;;;;;3.33;2.67;;;;;;;;;;5075299;28;20107;-51
2021/07/12 06:32:29;;;;;;;5.00;2.60;;;;;;;;;;5075082;28;20435;-50
2021/07/12 06:34:55;;;;;;;6.85;3.05;;;;;;;;;;5075901;28;20056;-50
2021/07/12 06:37:21;;;;;;;6.00;3.58;;;;;;;;;;5075036;28;20020;-51
2021/07/12 06:39:47;;;;;;;6.47;3.15;;;;;;;;;;5075686;28;20081;-50
2021/07/12 06:42:13;;;;;;;10.20;3.60;;;;;;;;;;5074816;28;20456;-50
2021/07/12 06:44:39;;;;;;;6.55;3.13;;;;;;;;;;5075654;28;20032;-50
2021/07/12 06:47:05;;;;;;;4.90;3.10;;;;;;;;;;5072101;28;20037;-50
2021/07/12 06:49:31;;;;;;;6.43;3.25;;;;;;;;;;5069593;28;20462;-50
2021/07/12 06:51:57;;;;;;;6.45;3.50;;;;;;;;;;5074557;28;20032;-50
2021/07/12 06:54:23;;;;;;;12.57;4.97;;;;;;;;;;5075580;28;20333;-50
2021/07/12 06:56:49;;;;;;;6.70;3.97;;;;;;;;;;5075775;28;20020;-50
2021/07/12 06:59:15;;;;;;;7.07;4.25;;;;;;;;;;5075311;28;20085;-50
2021/07/12 07:01:42;;;;;;;9.68;5.18;;;;;;;;;;5074679;28;20083;-50
2021/07/12 07:04:08;;;;;;;7.85;4.90;;;;;;;;;;5071655;28;20471;-50
2021/07/12 07:06:33;;;;;;;9.57;4.70;;;;;;;;;;5075309;28;20020;-50
2021/07/12 07:08:59;;;;;;;7.18;4.45;;;;;;;;;;5074217;28;20032;-50
2021/07/12 07:11:25;;;;;;;7.45;4.25;;;;;;;;;;5074836;28;20020;-51
2021/07/12 07:13:51;;;;;;;8.75;3.60;;;;;;;;;;5075132;28;20127;-50
2021/07/12 07:16:18;;;;;;;7.80;4.55;;;;;;;;;;5075225;28;20104;-50
2021/07/12 07:18:44;;;;;;;11.15;4.82;;;;;;;;;;5074470;28;20024;-50
2021/07/12 07:21:10;;;;;;;9.60;5.47;;;;;;;;;;5074466;28;20029;-50
2021/07/12 07:23:36;;;;;;;6.72;4.13;;;;;;;;;;5074936;28;20028;-50
2021/07/12 07:26:02;;;;;;;7.30;4.38;;;;;;;;;;5075249;28;20056;-50
2021/07/12 07:28:28;;;;;;;8.80;5.47;;;;;;;;;;5075166;28;20025;-50
2021/07/12 07:30:54;;;;;;;5.45;3.58;;;;;;;;;;5073860;28;20513;-50
2021/07/12 07:33:21;;;;;;;7.45;4.05;;;;;;;;;;5075191;28;20066;-51
2021/07/12 07:35:47;;;;;;;5.60;3.60;;;;;;;;;;5074713;28;20032;-50
2021/07/12 07:38:13;;;;;;;6.75;4.07;;;;;;;;;;5073916;28;20021;-50
2021/07/12 07:40:39;;;;;;;4.82;2.80;;;;;;;;;;5073973;28;20343;-50
2021/07/12 07:43:05;;;;;;;6.28;3.25;;;;;;;;;;5074074;28;20115;-50
2021/07/12 07:45:35;;;;;;;4.38;2.83;;;;;;;;;;5074793;28;20035;-50
2021/07/12 07:48:01;;;;;;;4.50;3.07;;;;;;;;;;5074252;28;20027;-50
2021/07/12 07:50:27;;;;;;;6.38;3.42;;;;;;;;;;5074354;28;20024;-50
2021/07/12 07:52:53;;;;;;;4.25;2.78;;;;;;;;;;5073431;28;20028;-50
2021/07/12 07:55:19;;;;;;;4.45;2.72;;;;;;;;;;5073736;28;20032;-50
2021/07/12 07:57:45;;;;;;;4.65;2.45;;;;;;;;;;5074769;28;20017;-50
2021/07/12 08:00:13;;;;;;;6.07;3.13;;;;;;;;;;5073569;28;20025;-50
2021/07/12 08:02:39;;;;;;;5.55;2.38;;;;;;;;;;5073893;28;20074;-50
2021/07/12 08:05:06;;;;;;;3.78;2.33;;;;;;;;;;5058845;28;20071;-51
2021/07/12 08:07:32;;;;;;;5.68;2.78;;;;;;;;;;5054452;28;20031;-50
2021/07/12 08:09:58;;;;;;;3.95;3.00;;;;;;;;;;5055605;28;20024;-50
2021/07/12 08:12:24;;;;;;;5.03;3.08;;;;;;;;;;5067657;28;20020;-50
2021/07/12 08:14:50;;;;;;;4.35;3.22;;;;;;;;;;5073841;28;20119;-50
2021/07/12 08:17:16;;;;;;;4.60;3.10;;;;;;;;;;5074253;28;20060;-50
2021/07/12 08:19:42;;;;;;;5.85;2.92;;;;;;;;;;5073592;28;20612;-50
2021/07/12 08:22:08;;;;;;;4.03;3.15;;;;;;;;;;5072968;28;20024;-50
2021/07/12 08:24:35;;;;;;;3.90;3.00;;;;;;;;;;5073549;28;20439;-50
2021/07/12 08:27:02;;;;;;;7.47;3.17;;;;;;;;;;5073760;28;20028;-50
2021/07/12 08:29:28;;;;;;;3.90;2.97;;;;;;;;;;5072704;28;20029;-50
2021/07/12 08:31:54;;;;;;;5.75;3.10;;;;;;;;;;5072079;28;20029;-50
2021/07/12 08:34:20;;;;;;;4.93;3.33;;;;;;;;;;5071349;28;20490;-50
2021/07/12 08:36:46;;;;;;;4.20;2.70;;;;;;;;;;5072438;28;20036;-50
2021/07/12 08:39:12;;;;;;;6.20;2.53;;;;;;;;;;5073688;28;20113;-50
2021/07/12 08:41:39;;;;;;;4.32;2.33;;;;;;;;;;5072767;28;20016;-50
2021/07/12 08:44:06;;;;;;;4.07;2.92;;;;;;;;;;5073656;28;20055;-50
2021/07/12 08:46:32;;;;;;;9.00;3.15;;;;;;;;;;5072717;28;20027;-50
2021/07/12 08:48:58;;;;;;;6.35;3.47;;;;;;;;;;5073187;28;20082;-50
2021/07/12 08:51:24;;;;;;;6.07;3.35;;;;;;;;;;5072537;28;20020;-50
2021/07/12 08:53:50;;;;;;;5.18;2.97;;;;;;;;;;5063882;28;20041;-50
2021/07/12 08:56:16;;;;;;;3.25;2.00;;;;;;;;;;5053221;28;20028;-50
2021/07/12 08:58:42;;;;;;;4.90;2.85;;;;;;;;;;5053442;28;20033;-50
2021/07/12 09:01:09;;;;;;;4.10;2.80;;;;;;;;;;5052277;28;20036;-50
2021/07/12 09:03:38;;;;;;;6.80;2.97;;;;;;;;;;5052715;28;20032;-50
2021/07/12 09:06:05;;;;;;;6.15;3.55;;;;;;;;;;5053427;28;20094;-50
2021/07/12 09:08:41;;;;;;;4.15;3.08;;;;;;;;;;5053220;28;20052;-50
2021/07/12 09:11:26;;;;;;;3.28;2.47;;;;;;;;;;5052297;28;20063;-50
2021/07/12 09:14:01;;;;;;;5.05;3.60;;;;;;;;;;5052794;28;20033;-50
2021/07/12 09:16:27;;;;;;;5.30;2.90;;;;;;;;;;5052772;28;20029;-50
2021/07/12 09:19:03;;;;;;;5.22;3.00;;;;;;;;;;5052349;28;20029;-50
2021/07/12 09:21:36;;;;;;;4.03;2.83;;;;;;;;;;5051819;28;20025;-50
2021/07/12 09:24:16;;;;;;;3.05;2.53;;;;;;;;;;5052960;28;20079;-50
2021/07/12 09:26:43;;;;;;;2.78;2.33;;;;;;;;;;5052535;28;20075;-50
2021/07/12 09:29:20;;;;;;;3.22;2.05;;;;;;;;;;5052949;28;20033;-50
2021/07/12 09:31:46;;;;;;;3.65;2.42;;;;;;;;;;5051678;28;20112;-50
2021/07/12 09:34:12;;;;;;;4.50;2.65;;;;;;;;;;5052797;28;20391;-50
2021/07/12 09:36:38;;;;;;;3.58;2.45;;;;;;;;;;5050917;28;20028;-50
2021/07/12 09:39:28;;;;;;;2.25;1.85;;;;;;;;;;5052634;28;20029;-50
2021/07/12 09:41:56;;;;;;;3.08;2.20;;;;;;;;;;5046625;28;20420;-50
2021/07/12 09:44:22;;;;;;;2.20;2.00;;;;;;;;;;5052711;28;20041;-50
2021/07/12 09:46:48;;;;;;;4.32;2.03;;;;;;;;;;5052165;28;20021;-50
2021/07/12 09:49:16;;;;;;;5.75;1.88;;;;;;;;;;5052197;28;20111;-50
2021/07/12 09:51:42;;;;;;;2.72;1.70;;;;;;;;;;5071431;28;20021;-50
2021/07/12 09:54:20;;;;;;;1.50;1.40;;;;;;;;;;5072628;28;20048;-50
2021/07/12 09:56:49;;;;;;;6.15;2.00;;;;;;;;;;5072458;28;20056;-50
2021/07/12 09:59:16;;;;;;;1.85;1.50;;;;;;;;;;5072259;28;20036;-50
2021/07/12 10:01:48;;;;;;;8.10;2.00;;;;;;;;;;5071828;28;20045;-50
2021/07/12 10:04:15;;;;;;;2.55;1.25;;;;;;;;;;5076142;28;20016;-50
2021/07/12 10:06:42;;;;;;;1.30;1.20;;;;;;;;;;5076540;28;20123;-50
2021/07/12 10:09:08;;;;;;;1.20;1.10;;;;;;;;;;5076052;28;20512;-50
2021/07/12 10:11:35;;;;;;;7.07;1.52;;;;;;;;;;5058665;28;20119;-50
2021/07/12 10:14:01;;;;;;;2.08;1.50;;;;;;;;;;5055959;28;20033;-50
2021/07/12 10:16:29;;;;;;;2.58;1.35;;;;;;;;;;5055963;28;20436;-50
2021/07/12 10:18:55;;;;;;;4.10;1.60;;;;;;;;;;5055538;28;20026;-50
2021/07/12 10:21:22;;;;;;;1.38;1.00;;;;;;;;;;5055229;28;20025;-50
2021/07/12 10:23:48;;;;;;;2.10;1.08;;;;;;;;;;5056160;28;20036;-50
2021/07/12 10:26:34;;;;;;;1.58;1.00;;;;;;;;;;5056264;28;20356;-50
2021/07/12 10:29:09;;;;;;;3.47;1.33;;;;;;;;;;5055548;28;20029;-50
2021/07/12 10:31:35;;;;;;;1.00;1.00;;;;;;;;;;5055475;28;20032;-50
2021/07/12 10:34:01;;;;;;;2.10;1.40;;;;;;;;;;5055951;28;20460;-50
2021/07/12 10:36:40;;;;;;;1.42;1.30;;;;;;;;;;5055873;28;20056;-50
2021/07/12 10:39:06;;;;;;;1.88;1.05;;;;;;;;;;5055615;28;20055;-50
2021/07/12 10:41:46;;;;;;;2.05;1.33;;;;;;;;;;5054932;28;20017;-50
2021/07/12 10:44:12;;;;;;;1.15;1.05;;;;;;;;;;5056028;28;20071;-50
2021/07/12 10:46:39;;;;;;;1.25;1.00;;;;;;;;;;5055570;28;20395;-50
2021/07/12 10:49:06;;;;;;;0.77;0.77;;;;;;;;;;5055479;28;20025;-50
2021/07/12 10:51:37;;;;;;;1.58;1.10;;;;;;;;;;5072629;28;20093;-50
2021/07/12 10:54:04;;;;;;;1.27;1.02;;;;;;;;;;5075113;28;20044;-50
2021/07/12 10:56:42;;;;;;;1.95;1.13;;;;;;;;;;5075463;28;20032;-50
2021/07/12 10:59:08;;;;;;;1.73;1.40;;;;;;;;;;5075277;28;20028;-50
2021/07/12 11:01:39;;;;;;;1.10;1.00;;;;;;;;;;5074689;28;20530;-50
2021/07/12 11:04:24;;;;;;;1.33;1.23;;;;;;;;;;5074859;28;20055;-50
2021/07/12 11:06:55;;;;;;;1.00;0.90;;;;;;;;;;5074820;28;20024;-50
2021/07/12 11:09:40;;;;;;;1.50;1.08;;;;;;;;;;5075532;28;20112;-50
2021/07/12 11:12:25;;;;;;;0.82;0.80;;;;;;;;;;5074217;28;20032;-50
2021/07/12 11:15:07;;;;;;;1.20;1.10;;;;;;;;;;5074228;28;20051;-49
2021/07/12 11:17:49;;;;;;;0.95;0.95;;;;;;;;;;5074917;28;20077;-50
2021/07/12 11:20:15;;;;;;;1.90;1.50;;;;;;;;;;5074745;28;20036;-50
2021/07/12 11:22:53;;;;;;;1.40;1.20;;;;;;;;;;5074671;28;20020;-50
2021/07/12 11:25:39;;;;;;;1.02;0.90;;;;;;;;;;5075170;28;20032;-50
2021/07/12 11:28:13;;;;;;;0.95;0.95;;;;;;;;;;5074218;28;20040;-50
2021/07/12 11:30:39;;;;;;;1.20;1.00;;;;;;;;;;5074095;28;20051;-50
2021/07/12 11:33:06;;;;;;;1.50;1.40;;;;;;;;;;5073769;28;20128;-50
2021/07/12 11:35:32;;;;;;;0.90;0.90;;;;;;;;;;5066067;28;20032;-51
2021/07/12 11:37:59;;;;;;;2.92;1.10;;;;;;;;;;5074592;28;20032;-50
2021/07/12 11:40:25;;;;;;;1.52;1.27;;;;;;;;;;5074915;28;20113;-50
2021/07/12 11:42:51;;;;;;;2.75;1.52;;;;;;;;;;5073844;28;20107;-50
2021/07/12 11:45:19;;;;;;;1.02;0.93;;;;;;;;;;5074706;28;20032;-50
2021/07/12 11:47:46;;;;;;;1.58;1.20;;;;;;;;;;5073969;28;20025;-50
2021/07/12 11:50:12;;;;;;;2.20;1.10;;;;;;;;;;5074409;28;20027;-50
2021/07/12 11:52:40;;;;;;;1.02;1.00;;;;;;;;;;5074022;28;20070;-50
2021/07/12 11:55:06;;;;;;;1.20;1.10;;;;;;;;;;5074197;28;20467;-50
2021/07/12 11:57:33;;;;;;;2.70;1.10;;;;;;;;;;5074506;28;20028;-50
2021/07/12 11:59:59;;;;;;;4.78;1.00;;;;;;;;;;5074470;28;20115;-50
2021/07/12 12:02:25;;;;;;;1.00;1.00;;;;;;;;;;5073151;28;20025;-50
2021/07/12 12:04:51;;;;;;;2.30;1.10;;;;;;;;;;5073913;28;20033;-50
2021/07/12 12:07:20;;;;;;;2.20;1.63;;;;;;;;;;5073886;28;20119;-50
2021/07/12 12:10:06;;;;;;;2.65;1.33;;;;;;;;;;5073204;28;20367;-50
2021/07/12 12:12:46;;;;;;;1.10;1.00;;;;;;;;;;5051792;28;20330;-50
2021/07/12 12:15:12;;;;;;;1.42;1.30;;;;;;;;;;5053937;28;20038;-50
2021/07/12 12:17:42;;;;;;;1.40;1.25;;;;;;;;;;5053642;28;20025;-50
2021/07/12 12:20:19;;;;;;;1.23;0.93;;;;;;;;;;5053657;28;21043;-50
2021/07/12 12:22:56;;;;;;;1.92;1.42;;;;;;;;;;5060996;28;20402;-50
2021/07/12 12:25:22;;;;;;;1.23;1.10;;;;;;;;;;5062876;28;20111;-51
2021/07/12 12:27:49;;;;;;;2.40;1.15;;;;;;;;;;5073202;28;20515;-50
2021/07/12 12:30:15;;;;;;;1.50;1.15;;;;;;;;;;5073956;28;20428;-50
2021/07/12 12:32:41;;;;;;;1.92;0.95;;;;;;;;;;5072720;28;20466;-50
2021/07/12 12:35:08;;;;;;;3.65;1.02;;;;;;;;;;5073748;28;20106;-50
2021/07/12 12:37:38;;;;;;;3.53;1.27;;;;;;;;;;5073775;28;20031;-50
2021/07/12 12:40:16;;;;;;;0.88;0.82;;;;;;;;;;5073555;28;20028;-50
2021/07/12 12:42:42;;;;;;;1.60;1.40;;;;;;;;;;5072652;28;20103;-50
2021/07/12 12:45:08;;;;;;;1.60;1.30;;;;;;;;;;5073600;28;20024;-50
2021/07/12 12:47:34;;;;;;;1.00;0.95;;;;;;;;;;5073311;28;20267;-50
2021/07/12 12:50:13;;;;;;;2.13;1.35;;;;;;;;;;5073334;28;20028;-50
2021/07/12 12:52:39;;;;;;;2.38;1.05;;;;;;;;;;5072408;28;20035;-51
2021/07/12 12:55:11;;;;;;;1.55;1.10;;;;;;;;;;5073353;28;20041;-50
2021/07/12 12:57:47;;;;;;;1.60;1.38;;;;;;;;;;5073359;28;20024;-51
2021/07/12 13:00:13;;;;;;;3.58;1.40;;;;;;;;;;5073192;28;20036;-50
2021/07/12 13:02:44;;;;;;;1.98;1.30;;;;;;;;;;5072125;28;20025;-50
2021/07/12 13:05:10;;;;;;;;;;;;;;;;;;5073791;28;20025;-50
2021/07/12 13:07:44;;;;;;;2.03;1.40;;;;;;;;;;5072985;28;19911;-50
2021/07/12 13:10:15;;;;;;;1.63;1.20;;;;;;;;;;5073523;28;20025;-51
2021/07/12 13:12:44;;;;;;;1.88;1.40;;;;;;;;;;5071891;28;20337;-50
2021/07/12 13:15:11;;;;;;;2.83;1.35;;;;;;;;;;5072844;28;20474;-51
2021/07/12 13:17:38;;;;;;;1.77;1.30;;;;;;;;;;5073322;28;20107;-50
2021/07/12 13:20:08;;;;;;;1.73;1.42;;;;;;;;;;5072843;28;20097;-50
2021/07/12 13:22:36;;;;;;;1.23;1.13;;;;;;;;;;5071601;28;20056;-50
2021/07/12 13:25:07;;;;;;;2.53;1.40;;;;;;;;;;5072861;28;20090;-50
2021/07/12 13:27:36;;;;;;;1.55;1.02;;;;;;;;;;5072846;28;20028;-50
2021/07/12 13:30:04;;;;;;;1.42;1.30;;;;;;;;;;5072602;28;20029;-50
2021/07/12 13:32:30;;;;;;;1.48;1.25;;;;;;;;;;5072223;28;20025;-50
2021/07/12 13:34:58;;;;;;;1.27;1.10;;;;;;;;;;5072826;28;20033;-50
2021/07/12 13:37:25;;;;;;;0.90;0.90;;;;;;;;;;5071885;28;20020;-50
2021/07/12 13:39:51;;;;;;;1.52;1.00;;;;;;;;;;5072941;28;20025;-50
2021/07/12 13:42:17;;;;;;;1.38;1.27;;;;;;;;;;5071554;28;20028;-50
2021/07/12 13:44:43;;;;;;;0.98;0.98;;;;;;;;;;5072894;28;20347;-50
2021/07/12 13:47:11;;;;;;;1.58;1.10;;;;;;;;;;5072624;28;20048;-50
2021/07/12 13:49:37;;;;;;;1.10;0.90;;;;;;;;;;5072487;28;20112;-50
2021/07/12 13:52:03;;;;;;;1.48;1.23;;;;;;;;;;5071623;28;20043;-51
2021/07/12 13:54:29;;;;;;;1.25;1.02;;;;;;;;;;5071644;28;20377;-50
2021/07/12 13:56:55;;;;;;;1.00;0.90;;;;;;;;;;5072247;28;20104;-51
2021/07/12 13:59:21;;;;;;;1.85;1.30;;;;;;;;;;5071966;28;20024;-50
2021/07/12 14:01:48;;;;;;;2.78;1.38;;;;;;;;;;5071721;28;20029;-50
2021/07/12 14:04:14;;;;;;;1.08;0.95;;;;;;;;;;5072633;28;20103;-50
2021/07/12 14:06:40;;;;;;;2.60;1.38;;;;;;;;;;5072676;28;20150;-50
2021/07/12 14:09:06;;;;;;;1.30;1.17;;;;;;;;;;5072679;28;20082;-50
2021/07/12 14:11:32;;;;;;;1.70;1.38;;;;;;;;;;5071377;28;20505;-50
2021/07/12 14:13:58;;;;;;;1.75;1.52;;;;;;;;;;5070083;28;20452;-50
2021/07/12 14:16:24;;;;;;;2.13;1.13;;;;;;;;;;5072680;28;20028;-50
2021/07/12 14:18:53;;;;;;;1.50;1.10;;;;;;;;;;5071659;28;20040;-50
2021/07/12 14:21:20;;;;;;;6.05;1.42;;;;;;;;;;5071439;28;20048;-50
2021/07/12 14:23:46;;;;;;;10.23;1.40;;;;;;;;;;5072199;28;20024;-50
2021/07/12 14:26:19;;;;;;;1.17;1.10;;;;;;;;;;5072055;28;20021;-50
2021/07/12 14:28:46;;;;;;;1.20;1.10;;;;;;;;;;5071995;28;20032;-50
2021/07/12 14:31:12;;;;;;;1.55;1.20;;;;;;;;;;5071906;28;20021;-51
2021/07/12 14:33:38;;;;;;;4.75;1.30;;;;;;;;;;5072583;28;20360;-50
2021/07/12 14:36:04;;;;;;;2.00;1.42;;;;;;;;;;5070905;28;20023;-50
2021/07/12 14:38:30;;;;;;;2.15;1.08;;;;;;;;;;5051935;28;20017;-50
2021/07/12 14:40:56;;;;;;;2.15;1.63;;;;;;;;;;5051725;28;20021;-50
2021/07/12 14:43:22;;;;;;;2.03;1.10;;;;;;;;;;5051781;28;20037;-50
2021/07/12 14:45:48;;;;;;;2.30;1.48;;;;;;;;;;5051696;28;20021;-52
2021/07/12 14:48:14;;;;;;;1.67;1.40;;;;;;;;;;5052969;28;20021;-50